createdAt,value
2018-05-26T00:00:00.265Z,98.20
2018-05-26T00:02:27.828Z,98.65
2018-05-26T00:04:55.469Z,98.73
2018-05-26T00:07:23.713Z,98.23
2018-05-26T00:09:51.426Z,97.91
2018-05-26T00:12:19.083Z,97.88
2018-05-26T00:14:46.951Z,98.14
2018-05-26T00:17:15.615Z,98.16
2018-05-26T00:19:43.245Z,97.74
2018-05-26T00:22:10.970Z,97.76
2018-05-26T00:24:38.614Z,97.96
2018-05-26T00:27:06.283Z,97.48
2018-05-26T00:29:34.439Z,96.93
2018-05-26T00:32:02.016Z,96.34
2018-05-26T00:34:29.642Z,96.41
2018-05-26T00:36:57.333Z,96.47
2018-05-26T00:39:24.987Z,96.68
2018-05-26T00:41:52.620Z,96.18
2018-05-26T00:44:20.756Z,95.56
2018-05-26T00:46:48.356Z,95.53
2018-05-26T00:49:16.037Z,95.54
2018-05-26T00:51:44.176Z,95.72
2018-05-26T00:54:11.778Z,96.01
2018-05-26T00:56:39.380Z,96.59
2018-05-26T00:59:07.231Z,96.46
2018-05-26T01:01:34.894Z,96.37
2018-05-26T01:04:02.575Z,96.40
2018-05-26T01:06:30.289Z,96.15
2018-05-26T01:08:57.902Z,96.17
2018-05-26T01:11:25.574Z,96.33
2018-05-26T01:13:53.261Z,95.74
2018-05-26T01:16:20.857Z,95.72
2018-05-26T01:18:48.583Z,95.49
2018-05-26T01:21:16.461Z,95.25
2018-05-26T01:23:44.057Z,94.59
2018-05-26T01:26:11.734Z,93.71
2018-05-26T01:28:39.568Z,93.81
2018-05-26T01:31:07.265Z,93.86
2018-05-26T01:33:34.887Z,94.13
2018-05-26T01:36:02.736Z,94.19
2018-05-26T01:38:30.392Z,94.90
2018-05-26T01:40:58.068Z,95.30
2018-05-26T01:43:25.789Z,95.63
2018-05-26T01:45:53.410Z,96.19
2018-05-26T01:48:21.036Z,96.37
2018-05-26T01:50:48.916Z,96.33
2018-05-26T01:53:16.576Z,96.29
2018-05-26T01:55:44.240Z,96.23
2018-05-26T01:58:12.103Z,96.19
2018-05-26T02:00:39.733Z,96.27
2018-05-26T02:03:07.433Z,96.31
2018-05-26T02:05:35.180Z,96.06
2018-05-26T02:08:02.752Z,96.52
2018-05-26T02:10:30.395Z,96.63
2018-05-26T02:12:58.230Z,96.64
2018-05-26T02:15:25.919Z,96.39
2018-05-26T02:17:53.582Z,96.50
2018-05-26T02:20:21.285Z,96.56
2018-05-26T02:22:48.903Z,96.47
2018-05-26T02:25:16.534Z,95.65
2018-05-26T02:27:44.263Z,95.88
2018-05-26T02:30:11.901Z,95.85
2018-05-26T02:32:39.552Z,95.25
2018-05-26T02:35:07.247Z,94.96
2018-05-26T02:37:34.872Z,95.33
2018-05-26T02:40:02.499Z,95.29
2018-05-26T02:42:30.389Z,94.94
2018-05-26T02:44:58.026Z,94.95
2018-05-26T02:47:25.684Z,95.34
2018-05-26T02:49:53.421Z,95.32
2018-05-26T02:52:21.034Z,94.94
2018-05-26T02:54:48.648Z,94.59
2018-05-26T02:57:16.863Z,94.68
2018-05-26T02:59:44.457Z,94.75
2018-05-26T03:02:14.104Z,94.56
2018-05-26T03:04:47.814Z,93.68
2018-05-26T03:07:20.925Z,93.47
2018-05-26T03:09:54.322Z,92.92
2018-05-26T03:12:27.448Z,92.28
2018-05-26T03:14:55.040Z,92.03
2018-05-26T03:20:31.252Z,90.90
2018-05-26T03:22:58.881Z,90.37
2018-05-26T03:25:26.517Z,89.75
2018-05-26T03:27:54.349Z,89.78
2018-05-26T03:30:22.020Z,88.39
2018-05-26T03:32:49.707Z,87.73
2018-05-26T03:35:17.559Z,86.97
2018-05-26T03:37:45.951Z,85.66
2018-05-26T03:40:13.589Z,84.58
2018-05-26T03:42:41.195Z,82.87
2018-05-26T03:45:09.344Z,82.23
2018-05-26T03:47:36.933Z,81.53
2018-05-26T03:50:04.578Z,80.73
2018-05-26T03:52:32.330Z,79.03
2018-05-26T03:58:20.488Z,77.07
2018-05-26T04:00:48.065Z,76.14
2018-05-26T04:03:15.665Z,75.97
2018-05-26T04:05:43.518Z,75.78
2018-05-26T04:08:11.221Z,75.29
2018-05-26T04:10:38.850Z,74.87
2018-05-26T04:13:09.689Z,75.29
2018-05-26T04:15:37.711Z,74.81
2018-05-26T04:18:05.383Z,74.50
2018-05-26T04:20:33.046Z,74.70
2018-05-26T04:23:00.677Z,74.39
2018-05-26T04:25:28.316Z,73.85
2018-05-26T04:27:56.001Z,72.50
2018-05-26T04:30:23.665Z,71.44
2018-05-26T04:32:51.268Z,71.80
2018-05-26T04:35:19.156Z,71.06
2018-05-26T04:37:46.787Z,69.91
2018-05-26T04:40:14.455Z,69.95
2018-05-26T04:42:42.280Z,70.26
2018-05-26T04:45:09.965Z,70.39
2018-05-26T04:47:37.629Z,68.85
2018-05-26T04:50:05.346Z,67.56
2018-05-26T04:52:32.964Z,68.11
2018-05-26T04:55:00.611Z,68.14
2018-05-26T04:57:28.734Z,66.13
2018-05-26T04:59:56.328Z,66.83
2018-05-26T05:02:23.986Z,66.47
2018-05-26T05:04:51.874Z,64.97
2018-05-26T05:07:19.520Z,64.75
2018-05-26T05:09:47.171Z,63.95
2018-05-26T05:12:15.010Z,63.63
2018-05-26T05:14:42.691Z,62.33
2018-05-26T05:17:11.472Z,60.58
2018-05-26T05:19:39.089Z,59.79
2018-05-26T05:22:06.722Z,58.08
2018-05-26T05:24:34.415Z,57.86
2018-05-26T05:27:02.257Z,57.99
2018-05-26T05:29:31.074Z,57.93
2018-05-26T05:31:58.809Z,57.85
2018-05-26T05:34:26.889Z,57.06
2018-05-26T05:36:54.487Z,57.12
2018-05-26T05:39:22.211Z,58.16
2018-05-26T05:41:50.015Z,56.92
2018-05-26T05:44:17.680Z,55.42
2018-05-26T05:46:45.373Z,53.14
2018-05-26T05:49:13.032Z,53.53
2018-05-26T05:51:40.652Z,53.40
2018-05-26T05:54:08.306Z,51.99
2018-05-26T05:56:36.028Z,52.11
2018-05-26T05:59:03.633Z,51.83
2018-05-26T06:01:31.302Z,51.88
2018-05-26T06:03:59.467Z,53.04
2018-05-26T06:06:27.035Z,53.78
2018-05-26T06:08:54.904Z,53.96
2018-05-26T06:11:23.095Z,54.49
2018-05-26T06:13:50.666Z,55.19
2018-05-26T06:16:18.303Z,55.21
2018-05-26T06:18:45.975Z,55.47
2018-05-26T06:21:13.805Z,56.08
2018-05-26T06:23:41.460Z,56.44
2018-05-26T06:26:09.176Z,55.49
2018-05-26T06:28:36.758Z,55.31
2018-05-26T06:31:04.421Z,55.52
2018-05-26T06:33:32.621Z,55.05
2018-05-26T06:36:00.282Z,54.87
2018-05-26T06:38:27.844Z,54.88
2018-05-26T06:40:55.606Z,55.06
2018-05-26T06:43:23.180Z,55.36
2018-05-26T06:45:50.801Z,54.86
2018-05-26T06:48:18.501Z,54.98
2018-05-26T06:50:46.190Z,54.22
2018-05-26T06:53:13.823Z,54.43
2018-05-26T06:55:41.466Z,54.19
2018-05-26T06:58:09.088Z,53.82
2018-05-26T07:00:36.794Z,54.42
2018-05-26T07:03:04.636Z,53.29
2018-05-26T07:05:32.304Z,53.02
2018-05-26T07:07:59.945Z,52.36
2018-05-26T07:10:27.639Z,52.60
2018-05-26T07:12:55.256Z,53.30
2018-05-26T07:15:22.964Z,52.25
2018-05-26T07:17:50.627Z,51.90
2018-05-26T07:20:18.279Z,51.98
2018-05-26T07:22:45.927Z,50.41
2018-05-26T07:25:13.671Z,52.27
2018-05-26T07:27:41.236Z,51.68
2018-05-26T07:30:08.845Z,50.49
2018-05-26T07:32:36.718Z,50.05
2018-05-26T07:35:04.411Z,51.49
2018-05-26T07:37:32.098Z,52.24
2018-05-26T07:40:00.213Z,51.88
2018-05-26T07:42:27.801Z,52.81
2018-05-26T07:44:55.432Z,52.71
2018-05-26T07:47:23.301Z,51.58
2018-05-26T07:49:50.953Z,51.95
2018-05-26T07:52:18.596Z,52.40
2018-05-26T07:54:46.457Z,51.62
2018-05-26T07:57:14.127Z,52.89
2018-05-26T08:06:25.362Z,53.64
2018-05-26T08:08:52.961Z,52.86
2018-05-26T08:11:20.559Z,53.12
2018-05-26T08:13:48.738Z,52.59
2018-05-26T08:16:16.320Z,51.43
2018-05-26T08:18:43.978Z,50.93
2018-05-26T08:21:12.022Z,50.94
2018-05-26T08:23:39.665Z,50.47
2018-05-26T08:26:07.349Z,50.49
2018-05-26T08:28:35.026Z,50.19
2018-05-26T08:31:02.665Z,48.74
2018-05-26T08:33:30.304Z,48.55
2018-05-26T08:35:58.305Z,49.64
2018-05-26T08:38:25.890Z,47.98
2018-05-26T08:40:53.484Z,47.12
2018-05-26T08:43:21.202Z,46.15
2018-05-26T08:45:48.793Z,46.27
2018-05-26T08:48:16.488Z,45.68
2018-05-26T08:50:44.347Z,45.17
2018-05-26T08:53:12.016Z,45.15
2018-05-26T08:55:39.718Z,43.91
2018-05-26T08:58:07.500Z,44.28
2018-05-26T09:00:35.191Z,44.23
2018-05-26T09:03:02.852Z,45.44
2018-05-26T09:05:30.537Z,44.93
2018-05-26T09:07:58.154Z,43.71
2018-05-26T09:10:25.817Z,44.50
2018-05-26T09:12:53.543Z,44.02
2018-05-26T09:15:21.126Z,42.34
2018-05-26T09:17:48.812Z,42.54
2018-05-26T09:20:16.658Z,42.93
2018-05-26T09:22:44.295Z,42.88
2018-05-26T09:25:12.149Z,43.93
2018-05-26T09:27:39.903Z,44.37
2018-05-26T09:30:07.502Z,46.32
2018-05-26T09:32:35.199Z,45.75
2018-05-26T09:35:02.871Z,45.07
2018-05-26T09:37:30.615Z,45.29
2018-05-26T09:39:58.371Z,45.80
2018-05-26T09:42:26.229Z,45.32
2018-05-26T09:44:53.868Z,45.12
2018-05-26T09:47:21.501Z,45.05
2018-05-26T09:49:49.703Z,45.36
2018-05-26T09:52:17.358Z,44.51
2018-05-26T09:54:44.999Z,43.66
2018-05-26T09:57:13.290Z,44.23
2018-05-26T09:59:40.885Z,44.09
2018-05-26T10:02:08.556Z,44.00
2018-05-26T10:04:36.217Z,41.95
2018-05-26T10:07:03.833Z,40.51
2018-05-26T10:09:31.510Z,40.59
2018-05-26T10:11:59.181Z,40.30
2018-05-26T10:14:26.824Z,38.70
2018-05-26T10:16:54.450Z,40.12
2018-05-26T10:19:22.137Z,41.85
2018-05-26T10:21:49.759Z,43.87
2018-05-26T10:24:18.083Z,51.30
2018-05-26T10:26:46.534Z,61.63
2018-05-26T10:29:14.247Z,76.25
2018-05-26T10:31:41.832Z,82.51
2018-05-26T10:34:09.774Z,91.89
2018-05-26T10:36:37.432Z,90.80
2018-05-26T10:39:05.060Z,90.39
2018-05-26T10:41:32.883Z,95.67
2018-05-26T10:44:00.552Z,96.58
2018-05-26T10:46:29.198Z,94.66
2018-05-26T10:48:56.952Z,92.83
2018-05-26T10:51:24.559Z,92.77
2018-05-26T10:53:52.180Z,92.49
2018-05-26T10:56:19.892Z,92.76
2018-05-26T10:58:47.571Z,92.98
2018-05-26T11:01:15.273Z,92.54
2018-05-26T11:03:43.049Z,89.09
2018-05-26T11:06:10.708Z,91.24
2018-05-26T11:08:38.417Z,90.72
2018-05-26T11:11:06.089Z,91.81
2018-05-26T11:13:33.683Z,90.59
2018-05-26T11:16:01.397Z,89.60
2018-05-26T11:18:29.070Z,88.65
2018-05-26T11:20:56.665Z,88.36
2018-05-26T11:23:24.364Z,89.67
2018-05-26T11:25:52.100Z,88.50
2018-05-26T11:28:19.851Z,87.74
2018-05-26T11:30:47.491Z,89.41
2018-05-26T11:33:15.218Z,88.16
2018-05-26T11:35:42.841Z,88.63
2018-05-26T11:38:10.480Z,90.20
2018-05-26T11:40:38.168Z,87.83
2018-05-26T11:43:05.819Z,87.11
2018-05-26T11:45:33.445Z,87.70
2018-05-26T11:48:01.321Z,88.23
2018-05-26T11:50:28.993Z,88.36
2018-05-26T11:52:56.653Z,86.27
2018-05-26T11:55:24.328Z,86.66
2018-05-26T11:57:51.945Z,88.13
2018-05-26T12:00:19.696Z,85.30
2018-05-26T12:02:47.725Z,83.42
2018-05-26T12:05:15.348Z,83.14
2018-05-26T12:07:43.028Z,82.34
2018-05-26T12:10:10.913Z,80.23
2018-05-26T12:12:38.549Z,80.85
2018-05-26T12:15:06.254Z,81.01
2018-05-26T12:17:34.580Z,81.39
2018-05-26T12:20:02.160Z,79.94
2018-05-26T12:22:29.776Z,77.92
2018-05-26T12:24:57.959Z,78.49
2018-05-26T12:27:25.561Z,77.76
2018-05-26T12:29:53.131Z,77.79
2018-05-26T12:32:20.869Z,74.98
2018-05-26T12:34:48.439Z,78.17
2018-05-26T12:37:16.112Z,77.18
2018-05-26T12:39:43.886Z,78.47
2018-05-26T12:42:11.472Z,77.14
2018-05-26T12:44:39.138Z,77.43
2018-05-26T12:47:06.829Z,77.78
2018-05-26T12:49:34.431Z,77.66
2018-05-26T12:52:02.093Z,73.34
2018-05-26T12:54:29.803Z,74.69
2018-05-26T12:56:57.392Z,74.87
2018-05-26T12:59:25.073Z,74.87
2018-05-26T13:01:52.808Z,69.57
2018-05-26T13:04:20.394Z,73.05
2018-05-26T13:06:48.064Z,70.90
2018-05-26T13:09:15.760Z,70.85
2018-05-26T13:11:43.456Z,70.21
2018-05-26T13:14:12.113Z,71.40
2018-05-26T13:16:39.931Z,70.37
2018-05-26T13:19:07.552Z,70.05
2018-05-26T13:21:35.253Z,69.92
2018-05-26T13:24:03.268Z,70.06
2018-05-26T13:26:30.956Z,68.70
2018-05-26T13:28:58.647Z,66.35
2018-05-26T13:31:26.324Z,65.43
2018-05-26T13:33:53.963Z,67.13
2018-05-26T13:36:21.600Z,65.69
2018-05-26T13:38:49.290Z,65.35
2018-05-26T13:41:16.967Z,64.48
2018-05-26T13:43:44.581Z,64.51
2018-05-26T13:46:12.424Z,65.26
2018-05-26T13:48:40.082Z,63.39
2018-05-26T13:51:07.796Z,63.47
2018-05-26T13:53:35.541Z,62.97
2018-05-26T13:56:03.157Z,61.41
2018-05-26T13:58:30.732Z,63.09
2018-05-26T14:00:58.412Z,61.19
2018-05-26T14:03:26.061Z,62.22
2018-05-26T14:05:53.705Z,62.02
2018-05-26T14:08:21.567Z,62.24
2018-05-26T14:10:49.291Z,62.21
2018-05-26T14:13:16.876Z,61.25
2018-05-26T14:15:44.610Z,61.73
2018-05-26T14:18:12.232Z,59.46
2018-05-26T14:20:39.889Z,60.98
2018-05-26T14:23:08.036Z,60.86
2018-05-26T14:25:35.648Z,61.25
2018-05-26T14:28:03.337Z,60.98
2018-05-26T14:30:30.987Z,59.64
2018-05-26T14:32:58.580Z,59.79
2018-05-26T14:35:26.270Z,58.71
2018-05-26T14:37:53.949Z,58.46
2018-05-26T14:40:21.567Z,57.70
2018-05-26T14:42:49.211Z,56.59
2018-05-26T14:45:16.929Z,57.82
2018-05-26T14:47:44.573Z,59.17
2018-05-26T14:50:12.165Z,57.26
2018-05-26T14:52:40.055Z,54.78
2018-05-26T14:55:07.692Z,54.29
2018-05-26T14:57:35.408Z,53.13
2018-05-26T15:00:03.168Z,52.62
2018-05-26T15:02:30.904Z,54.09
2018-05-26T15:04:58.570Z,53.18
2018-05-26T15:07:26.273Z,53.71
2018-05-26T15:09:53.848Z,51.74
2018-05-26T15:12:21.539Z,52.37
2018-05-26T15:14:49.373Z,52.21
2018-05-26T15:17:17.034Z,53.13
2018-05-26T15:19:44.725Z,52.64
2018-05-26T15:22:12.372Z,53.04
2018-05-26T15:24:40.184Z,53.16
2018-05-26T15:27:07.905Z,52.58
2018-05-26T15:29:35.596Z,53.29
2018-05-26T15:32:03.209Z,52.73
2018-05-26T15:34:30.838Z,53.89
2018-05-26T15:36:58.720Z,53.13
2018-05-26T15:39:26.406Z,53.55
2018-05-26T15:41:54.062Z,53.90
2018-05-26T15:44:21.923Z,54.31
2018-05-26T15:46:49.504Z,52.77
2018-05-26T15:49:17.186Z,53.21
2018-05-26T15:51:45.291Z,53.27
2018-05-26T15:54:13.140Z,52.76
2018-05-26T15:56:40.870Z,54.28
2018-05-26T15:59:08.624Z,54.28
2018-05-26T16:01:36.192Z,52.98
2018-05-26T16:04:03.844Z,52.71
2018-05-26T16:06:31.680Z,52.87
2018-05-26T16:08:59.368Z,52.79
2018-05-26T16:11:27.008Z,52.99
2018-05-26T16:13:54.722Z,52.98
2018-05-26T16:16:22.312Z,54.39
2018-05-26T16:18:49.978Z,54.27
2018-05-26T16:21:17.681Z,55.24
2018-05-26T16:23:45.293Z,55.70
2018-05-26T16:26:12.965Z,56.62
2018-05-26T16:28:40.750Z,57.86
2018-05-26T16:31:08.345Z,58.89
2018-05-26T16:33:35.937Z,59.78
2018-05-26T16:36:03.655Z,60.39
2018-05-26T16:38:31.248Z,60.55
2018-05-26T16:40:58.921Z,61.51
2018-05-26T16:43:26.741Z,62.30
2018-05-26T16:45:54.460Z,62.71
2018-05-26T16:48:22.081Z,61.51
2018-05-26T16:50:50.229Z,61.18
2018-05-26T16:53:17.880Z,61.55
2018-05-26T16:55:45.477Z,60.28
2018-05-26T16:58:13.194Z,59.57
2018-05-26T17:00:40.843Z,60.09
2018-05-26T17:03:08.487Z,60.36
2018-05-26T17:05:36.332Z,59.30
2018-05-26T17:08:04.019Z,62.22
2018-05-26T17:10:31.595Z,63.00
2018-05-26T17:12:59.345Z,62.47
2018-05-26T17:15:26.951Z,62.63
2018-05-26T17:17:54.628Z,63.00
2018-05-26T17:20:22.835Z,65.92
2018-05-26T17:22:50.560Z,65.56
2018-05-26T17:25:18.193Z,65.68
2018-05-26T17:27:46.303Z,66.05
2018-05-26T17:30:13.952Z,66.59
2018-05-26T17:32:41.571Z,67.64
2018-05-26T17:35:09.408Z,67.32
2018-05-26T17:37:37.114Z,67.89
2018-05-26T17:40:04.828Z,69.21
2018-05-26T17:42:32.519Z,69.44
2018-05-26T17:45:00.091Z,69.91
2018-05-26T17:47:27.748Z,70.07
2018-05-26T17:49:55.498Z,70.94
2018-05-26T17:52:23.059Z,71.92
2018-05-26T17:54:50.737Z,72.23
2018-05-26T17:57:18.436Z,72.84
2018-05-26T17:59:46.098Z,73.15
2018-05-26T18:02:13.701Z,72.80
2018-05-26T18:04:41.568Z,72.36
2018-05-26T18:07:09.235Z,72.57
2018-05-26T18:09:36.891Z,72.14
2018-05-26T18:12:04.589Z,71.34
2018-05-26T18:14:32.188Z,71.68
2018-05-26T18:16:59.862Z,72.16
2018-05-26T18:19:27.754Z,72.51
2018-05-26T18:21:55.396Z,73.54
2018-05-26T18:24:23.052Z,74.87
2018-05-26T18:26:50.866Z,76.16
2018-05-26T18:29:18.592Z,76.91
2018-05-26T18:31:46.178Z,77.71
2018-05-26T18:34:14.366Z,78.07
2018-05-26T18:36:41.975Z,78.05
2018-05-26T18:39:09.608Z,78.17
2018-05-26T18:41:37.315Z,77.66
2018-05-26T18:44:04.960Z,77.19
2018-05-26T18:46:32.629Z,77.60
2018-05-26T18:49:00.756Z,77.19
2018-05-26T18:51:28.351Z,77.31
2018-05-26T18:53:55.998Z,77.53
2018-05-26T18:56:23.828Z,77.58
2018-05-26T18:58:51.540Z,78.58
2018-05-26T19:01:19.202Z,78.90
2018-05-26T19:03:46.859Z,78.94
2018-05-26T19:06:14.497Z,79.17
2018-05-26T19:08:42.153Z,79.64
2018-05-26T19:11:09.836Z,79.80
2018-05-26T19:13:37.473Z,79.79
2018-05-26T19:16:05.103Z,79.95
2018-05-26T19:18:32.830Z,80.67
2018-05-26T19:21:00.462Z,80.36
2018-05-26T19:23:28.088Z,80.62
2018-05-26T19:25:55.799Z,81.10
2018-05-26T19:28:23.393Z,80.84
2018-05-26T19:30:51.070Z,81.06
2018-05-26T19:33:19.065Z,81.86
2018-05-26T19:35:46.654Z,81.92
2018-05-26T19:38:14.251Z,82.31
2018-05-26T19:40:41.889Z,82.48
2018-05-26T19:43:09.507Z,82.32
2018-05-26T19:45:37.153Z,82.13
2018-05-26T19:48:05.133Z,80.55
2018-05-26T19:50:32.787Z,80.53
2018-05-26T19:53:00.401Z,79.73
2018-05-26T19:55:28.131Z,80.40
2018-05-26T19:57:55.773Z,80.69
2018-05-26T20:00:23.420Z,81.36
2018-05-26T20:02:51.283Z,81.72
2018-05-26T20:05:18.947Z,82.36
2018-05-26T20:07:46.661Z,82.75
2018-05-26T20:10:14.617Z,83.09
2018-05-26T20:12:42.208Z,83.93
2018-05-26T20:15:09.829Z,83.84
2018-05-26T20:17:37.709Z,83.54
2018-05-26T20:20:05.428Z,83.18
2018-05-26T20:22:33.055Z,83.15
2018-05-26T20:25:01.253Z,83.19
2018-05-26T20:27:28.844Z,83.01
2018-05-26T20:29:56.559Z,82.44
2018-05-26T20:32:24.570Z,80.90
2018-05-26T20:34:52.246Z,79.71
2018-05-26T20:37:20.058Z,80.03
2018-05-26T20:39:48.114Z,79.36
2018-05-26T20:42:15.716Z,79.14
2018-05-26T20:44:43.299Z,79.55
2018-05-26T20:47:11.182Z,80.35
2018-05-26T20:49:38.828Z,80.63
2018-05-26T20:52:06.500Z,80.73
2018-05-26T20:54:34.222Z,80.89
2018-05-26T20:57:01.819Z,81.51
2018-05-26T20:59:29.510Z,81.20
2018-05-26T21:01:57.310Z,81.91
2018-05-26T21:04:31.045Z,82.07
2018-05-26T21:06:58.654Z,83.15
2018-05-26T21:09:26.272Z,83.79
2018-05-26T21:11:53.931Z,83.79
2018-05-26T21:14:21.768Z,84.20
2018-05-26T21:16:49.441Z,84.61
2018-05-26T21:19:17.137Z,84.30
2018-05-26T21:21:45.273Z,83.89
2018-05-26T21:24:12.859Z,84.15
2018-05-26T21:26:40.489Z,84.62
2018-05-26T21:29:08.498Z,84.27
2018-05-26T21:31:36.076Z,84.64
2018-05-26T21:34:03.690Z,85.50
2018-05-26T21:36:31.836Z,86.99
2018-05-26T21:38:59.434Z,89.04
2018-05-26T21:41:27.119Z,92.32
2018-05-26T21:43:54.755Z,93.99
2018-05-26T21:46:22.387Z,96.92
2018-05-26T21:48:50.075Z,98.47
2018-05-26T21:51:17.743Z,98.75
2018-05-26T21:53:45.400Z,98.71
2018-05-26T21:56:13.015Z,99.15
2018-05-26T21:58:40.719Z,99.88
2018-05-26T22:01:08.301Z,100.00
2018-05-26T22:03:35.984Z,100.00
2018-05-26T22:06:03.763Z,100.00
2018-05-26T22:08:31.320Z,100.00
2018-05-26T22:10:58.996Z,100.00
2018-05-26T22:13:27.042Z,100.00
2018-05-26T22:15:54.746Z,100.00
2018-05-26T22:18:22.440Z,100.00
2018-05-26T22:20:50.097Z,100.00
2018-05-26T22:23:17.706Z,100.00
2018-05-26T22:25:45.383Z,100.00
2018-05-26T22:28:13.067Z,100.00
2018-05-26T22:30:40.663Z,100.00
2018-05-26T22:33:08.328Z,100.00
2018-05-26T22:35:36.310Z,100.00
2018-05-26T22:38:04.078Z,100.00
2018-05-26T22:40:31.731Z,100.00
2018-05-26T22:42:59.412Z,100.00
2018-05-26T22:45:27.050Z,100.00
2018-05-26T22:47:54.716Z,100.00
2018-05-26T22:50:22.548Z,100.00
2018-05-26T22:52:50.192Z,100.00
2018-05-26T22:55:17.906Z,100.00
2018-05-26T22:57:45.703Z,100.00
2018-05-26T23:00:13.477Z,100.00
2018-05-26T23:02:41.074Z,100.00
2018-05-26T23:05:08.907Z,100.00
2018-05-26T23:07:36.549Z,100.00
2018-05-26T23:10:04.338Z,100.00
2018-05-26T23:12:31.972Z,100.00
2018-05-26T23:14:59.612Z,100.00
2018-05-26T23:17:27.200Z,100.00
2018-05-26T23:19:55.418Z,100.00
2018-05-26T23:22:23.160Z,100.00
2018-05-26T23:24:50.800Z,100.00
2018-05-26T23:27:18.519Z,100.00
2018-05-26T23:29:46.126Z,100.00
2018-05-26T23:32:13.785Z,100.00
2018-05-26T23:34:41.493Z,100.00
2018-05-26T23:37:09.114Z,100.00
2018-05-26T23:39:36.703Z,100.00
2018-05-26T23:42:04.383Z,100.00
2018-05-26T23:44:32.212Z,100.00
2018-05-26T23:46:59.870Z,100.00
2018-05-26T23:49:27.880Z,100.00
2018-05-26T23:51:55.579Z,100.00
2018-05-26T23:54:23.269Z,100.00
2018-05-26T23:56:50.955Z,100.00
2018-05-26T23:59:18.557Z,100.00
